| time (UTC) | temp F | wind direction | speed MPH | gust MPH | rain 1hr in | rain 24hr in | rain mn in | humidity % | barometer mb |
| 20260509173804 | 85 | 54 | 1.0 | 1.0 | 0.00 | 0.00 | 0.00 | 52 | 1009.1 |
| 20260509173259 | 85 | 21 | 3.0 | 3.0 | 0.00 | 0.00 | 0.00 | 52 | 1009.1 |
| 20260509172755 | 84 | 57 | 0.0 | 0.0 | 0.00 | 0.00 | 0.00 | 54 | 1009.2 |
| 20260509172253 | 82 | 53 | 1.0 | 2.0 | 0.00 | 0.00 | 0.00 | 56 | 1009.2 |
| 20260509171748 | 83 | 53 | 0.0 | 1.0 | 0.00 | 0.00 | 0.00 | 54 | 1009.0 |
| 20260509171244 | 82 | 76 | 2.0 | 2.0 | 0.00 | 0.00 | 0.00 | 55 | 1009.0 |
| 20260509170741 | 83 | 61 | 3.0 | 3.0 | 0.00 | 0.00 | 0.00 | 55 | 1009.3 |
| 20260509170237 | 83 | 39 | 1.0 | 1.0 | 0.00 | 0.00 | 0.00 | 55 | 1009.4 |
| 20260509165736 | 82 | 41 | 4.0 | 5.0 | 0.00 | 0.00 | 0.00 | 55 | 1009.3 |
| 20260509165231 | 83 | 47 | 2.0 | 2.0 | 0.00 | 0.00 | 0.00 | 54 | 1009.5 |
| 20260509164727 | 82 | 73 | 2.0 | 2.0 | 0.00 | 0.00 | 0.00 | 56 | 1009.4 |
| 20260509164223 | 82 | 47 | 1.0 | 1.0 | 0.00 | 0.00 | 0.00 | 56 | 1009.4 |
| 20260509163721 | 82 | 67 | 1.0 | 1.0 | 0.00 | 0.00 | 0.00 | 56 | 1009.4 |
| 20260509163217 | 82 | 46 | 0.0 | 0.0 | 0.00 | 0.00 | 0.00 | 56 | 1009.4 |
| 20260509162715 | 82 | 59 | 1.0 | 2.0 | 0.00 | 0.00 | 0.00 | 55 | 1009.7 |
| 20260509162210 | 82 | 51 | 0.0 | 1.0 | 0.00 | 0.00 | 0.00 | 55 | 1009.7 |
| 20260509161706 | 82 | 57 | 0.0 | 1.0 | 0.00 | 0.00 | 0.00 | 56 | 1009.6 |
| 20260509161202 | 80 | 62 | 0.0 | 1.0 | 0.00 | 0.00 | 0.00 | 58 | 1009.7 |
| 20260509160657 | 80 | 32 | 2.0 | 2.0 | 0.00 | 0.00 | 0.00 | 57 | 1009.5 |
| 20260509160153 | 80 | 13 | 5.0 | 7.0 | 0.00 | 0.00 | 0.00 | 55 | 1009.5 |
| 20260509155649 | 81 | 61 | 0.0 | 0.0 | 0.00 | 0.00 | 0.00 | 59 | 1009.3 |
| 20260509155146 | 79 | 70 | 1.0 | 1.0 | 0.00 | 0.00 | 0.00 | 60 | 1009.3 |
| 20260509154641 | 79 | 64 | 3.0 | 3.0 | 0.00 | 0.00 | 0.00 | 59 | 1009.4 |
| 20260509154139 | 79 | 83 | 4.0 | 6.0 | 0.00 | 0.00 | 0.00 | 60 | 1009.0 |
| 20260509153636 | 78 | 59 | 1.0 | 2.0 | 0.00 | 0.00 | 0.00 | 62 | 1009.3 |
| 20260509153132 | 78 | 64 | 0.0 | 1.0 | 0.00 | 0.00 | 0.00 | 63 | 1009.2 |
| 20260509152628 | 78 | 26 | 1.0 | 1.0 | 0.00 | 0.00 | 0.00 | 64 | 1009.3 |
| 20260509152126 | 77 | 62 | 1.0 | 1.0 | 0.00 | 0.00 | 0.00 | 65 | 1009.3 |
| 20260509151622 | 77 | 357 | 2.0 | 3.0 | 0.00 | 0.00 | 0.00 | 67 | 1009.3 |
| 20260509151120 | 76 | 19 | 2.0 | 2.0 | 0.00 | 0.00 | 0.00 | 69 | 1009.3 |
| 20260509150617 | 76 | 51 | 2.0 | 3.0 | 0.00 | 0.00 | 0.00 | 68 | 1009.3 |
| 20260509150115 | 77 | 58 | 0.0 | 1.0 | 0.00 | 0.00 | 0.00 | 69 | 1009.7 |
| 20260509145611 | 77 | 40 | 2.0 | 2.0 | 0.00 | 0.00 | 0.00 | 70 | 1009.5 |
| 20260509145107 | 76 | 74 | 2.0 | 2.0 | 0.00 | 0.00 | 0.00 | 71 | 1009.4 |
| 20260509144604 | 75 | 53 | 0.0 | 1.0 | 0.00 | 0.00 | 0.00 | 72 | 1009.4 |
| 20260509144101 | 76 | 58 | 1.0 | 1.0 | 0.00 | 0.00 | 0.00 | 71 | 1009.6 |
| 20260509143558 | 75 | 75 | 0.0 | 1.0 | 0.00 | 0.00 | 0.00 | 73 | 1009.7 |
| 20260509143056 | 75 | 65 | 0.0 | 0.0 | 0.00 | 0.00 | 0.00 | 75 | 1009.5 |
| 20260509142556 | 76 | 61 | 1.0 | 1.0 | 0.00 | 0.00 | 0.00 | 73 | 1009.7 |
| 20260509142052 | 76 | 62 | 1.0 | 1.0 | 0.00 | 0.00 | 0.00 | 73 | 1009.7 |
| 20260509141548 | 75 | 66 | 2.0 | 3.0 | 0.00 | 0.00 | 0.00 | 75 | 1009.8 |
| 20260509141045 | 74 | 75 | 2.0 | 2.0 | 0.00 | 0.00 | 0.00 | 75 | 1009.6 |
| 20260509140542 | 75 | 64 | 0.0 | 1.0 | 0.00 | 0.00 | 0.00 | 76 | 1009.7 |
| 20260509140040 | 75 | 76 | 1.0 | 1.0 | 0.00 | 0.00 | 0.00 | 75 | 1009.9 |
| 20260509135537 | 74 | 65 | 0.0 | 1.0 | 0.00 | 0.00 | 0.00 | 76 | 1009.7 |
| 20260509135035 | 74 | 62 | 0.0 | 0.0 | 0.00 | 0.00 | 0.00 | 77 | 1009.5 |
| 20260509134532 | 73 | 67 | 1.0 | 1.0 | 0.00 | 0.00 | 0.00 | 77 | 1009.7 |
| 20260509134029 | 73 | 62 | 0.0 | 1.0 | 0.00 | 0.00 | 0.00 | 79 | 1009.8 |
| 20260509133526 | 72 | 79 | 0.0 | 0.0 | 0.00 | 0.00 | 0.00 | 80 | 1009.5 |
| 20260509133024 | 71 | 60 | 0.0 | 0.0 | 0.00 | 0.00 | 0.00 | 82 | 1009.6 |
| 20260509132522 | 70 | 64 | 0.0 | 1.0 | 0.00 | 0.00 | 0.00 | 83 | 1009.4 |
| 20260509132020 | 69 | 60 | 0.0 | 1.0 | 0.00 | 0.00 | 0.00 | 84 | 1009.5 |
| 20260509131515 | 69 | 68 | 0.0 | 0.0 | 0.00 | 0.00 | 0.00 | 84 | 1009.3 |
| 20260509131013 | 69 | 61 | 0.0 | 0.0 | 0.00 | 0.00 | 0.00 | 84 | 1009.3 |
| 20260509130508 | 69 | 77 | 1.0 | 1.0 | 0.00 | 0.00 | 0.00 | 84 | 1009.5 |
| 20260509130005 | 69 | 57 | 0.0 | 1.0 | 0.00 | 0.00 | 0.00 | 84 | 1009.4 |
| 20260509125501 | 68 | 59 | 0.0 | 1.0 | 0.00 | 0.00 | 0.00 | 84 | 1009.5 |
| 20260509124957 | 68 | 64 | 0.0 | 1.0 | 0.00 | 0.00 | 0.00 | 85 | 1009.3 |
| 20260509124455 | 68 | 54 | 0.0 | 1.0 | 0.00 | 0.00 | 0.00 | 85 | 1009.2 |
| 20260509123952 | 67 | 61 | 0.0 | 0.0 | 0.00 | 0.00 | 0.00 | 85 | 1009.3 |
| 20260509123449 | 67 | 61 | 0.0 | 0.0 | 0.00 | 0.00 | 0.00 | 85 | 1009.4 |
| 20260509122945 | 67 | 68 | 1.0 | 3.0 | 0.00 | 0.00 | 0.00 | 85 | 1009.4 |
| 20260509122442 | 67 | 57 | 0.0 | 1.0 | 0.00 | 0.00 | 0.00 | 85 | 1009.4 |
| 20260509121939 | 67 | 50 | 1.0 | 1.0 | 0.00 | 0.00 | 0.00 | 86 | 1009.5 |
| 20260509121435 | 66 | 38 | 3.0 | 3.0 | 0.00 | 0.00 | 0.00 | 86 | 1009.1 |
| 20260509120934 | 66 | 58 | 0.0 | 0.0 | 0.00 | 0.00 | 0.00 | 87 | 1009.2 |
| 20260509120432 | 66 | 60 | 0.0 | 0.0 | 0.00 | 0.00 | 0.00 | 88 | 1009.0 |
| 20260509115929 | 66 | 56 | 0.0 | 0.0 | 0.00 | 0.00 | 0.00 | 88 | 1009.0 |
| 20260509115426 | 66 | 57 | 0.0 | 0.0 | 0.00 | 0.00 | 0.00 | 88 | 1009.2 |
| 20260509114924 | 66 | 54 | 0.0 | 0.0 | 0.00 | 0.00 | 0.00 | 88 | 1009.1 |
| 20260509114422 | 66 | 59 | 0.0 | 0.0 | 0.00 | 0.00 | 0.00 | 88 | 1009.1 |
| 20260509113921 | 66 | 60 | 0.0 | 0.0 | 0.00 | 0.00 | 0.00 | 88 | 1008.7 |
| 20260509113418 | 66 | 60 | 0.0 | 0.0 | 0.00 | 0.00 | 0.00 | 88 | 1008.7 |
| 20260509112915 | 67 | 67 | 0.0 | 0.0 | 0.00 | 0.00 | 0.00 | 88 | 1008.5 |
| 20260509112412 | 67 | 61 | 0.0 | 0.0 | 0.00 | 0.00 | 0.00 | 87 | 1008.4 |
| 20260509111909 | 67 | 58 | 0.0 | 0.0 | 0.00 | 0.00 | 0.00 | 87 | 1008.2 |
| 20260509111406 | 67 | 54 | 0.0 | 1.0 | 0.00 | 0.00 | 0.00 | 87 | 1008.1 |
| 20260509110904 | 67 | 58 | 0.0 | 0.0 | 0.00 | 0.00 | 0.00 | 86 | 1008.2 |
| 20260509110359 | 67 | 57 | 1.0 | 1.0 | 0.00 | 0.00 | 0.00 | 86 | 1008.5 |
| 20260509105858 | 68 | 62 | 0.0 | 0.0 | 0.00 | 0.00 | 0.00 | 85 | 1008.1 |
| 20260509105356 | 68 | 62 | 0.0 | 0.0 | 0.00 | 0.00 | 0.00 | 84 | 1008.1 |
| 20260509104853 | 68 | 58 | 0.0 | 0.0 | 0.00 | 0.00 | 0.00 | 84 | 1008.0 |
| 20260509104349 | 68 | 58 | 0.0 | 0.0 | 0.00 | 0.00 | 0.00 | 83 | 1008.1 |
| 20260509103847 | 68 | 62 | 0.0 | 0.0 | 0.00 | 0.00 | 0.00 | 83 | 1008.1 |
| 20260509103344 | 68 | 60 | 0.0 | 0.0 | 0.00 | 0.00 | 0.00 | 83 | 1008.0 |
| 20260509102843 | 68 | 57 | 0.0 | 0.0 | 0.00 | 0.00 | 0.00 | 82 | 1008.0 |
| 20260509102339 | 68 | 62 | 0.0 | 0.0 | 0.00 | 0.00 | 0.00 | 81 | 1008.1 |
| 20260509101835 | 68 | 63 | 0.0 | 0.0 | 0.00 | 0.00 | 0.00 | 81 | 1008.0 |
| 20260509101331 | 68 | 63 | 0.0 | 0.0 | 0.00 | 0.00 | 0.00 | 79 | 1007.9 |
| 20260509100830 | 69 | 60 | 0.0 | 0.0 | 0.00 | 0.00 | 0.00 | 78 | 1007.9 |
| 20260509100326 | 69 | 60 | 0.0 | 0.0 | 0.00 | 0.00 | 0.00 | 78 | 1008.1 |
| 20260509095823 | 69 | 59 | 0.0 | 0.0 | 0.00 | 0.00 | 0.00 | 77 | 1007.9 |
| 20260509095320 | 70 | 59 | 0.0 | 0.0 | 0.00 | 0.00 | 0.00 | 76 | 1008.1 |
| 20260509094817 | 70 | 61 | 0.0 | 0.0 | 0.00 | 0.00 | 0.00 | 75 | 1008.0 |
| 20260509094314 | 71 | 55 | 0.0 | 0.0 | 0.00 | 0.00 | 0.00 | 74 | 1007.8 |
| 20260509093812 | 71 | 46 | 1.0 | 1.0 | 0.00 | 0.00 | 0.00 | 74 | 1007.5 |
| 20260509093309 | 71 | 48 | 1.0 | 1.0 | 0.00 | 0.00 | 0.00 | 72 | 1007.4 |
| 20260509092807 | 72 | 47 | 4.0 | 6.0 | 0.00 | 0.00 | 0.00 | 71 | 1006.8 |
| 20260509092306 | 73 | 25 | 5.0 | 8.0 | 0.00 | 0.00 | 0.00 | 68 | 1006.9 |
| 20260509091803 | 70 | 64 | 3.0 | 3.0 | 0.00 | 0.00 | 0.00 | 77 | 1006.6 |
| 20260509091259 | 70 | 50 | 5.0 | 7.0 | 0.00 | 0.00 | 0.00 | 82 | 1006.5 |
| 20260509090756 | 69 | 60 | 1.0 | 1.0 | 0.00 | 0.00 | 0.00 | 83 | 1005.9 |
| 20260509090253 | 69 | 68 | 9.0 | 11.0 | 0.00 | 0.00 | 0.00 | 84 | 1006.4 |
| 20260509085751 | 69 | 350 | 3.0 | 3.0 | 0.00 | 0.00 | 0.00 | 85 | 1005.3 |
| 20260509085248 | 69 | 313 | 2.0 | 3.0 | 0.00 | 0.00 | 0.00 | 84 | 1005.3 |
| 20260509084744 | 70 | 288 | 4.0 | 5.0 | 0.00 | 0.00 | 0.00 | 84 | 1005.3 |
| 20260509084241 | 69 | 314 | 3.0 | 3.0 | 0.00 | 0.00 | 0.00 | 84 | 1005.7 |
| 20260509083739 | 69 | 277 | 4.0 | 5.0 | 0.00 | 0.00 | 0.00 | 84 | 1005.5 |
| 20260509083236 | 69 | 297 | 3.0 | 5.0 | 0.00 | 0.00 | 0.00 | 84 | 1005.7 |
| 20260509082732 | 69 | 264 | 4.0 | 5.0 | 0.00 | 0.00 | 0.00 | 85 | 1005.8 |
| 20260509082229 | 69 | 332 | 3.0 | 3.0 | 0.00 | 0.00 | 0.00 | 85 | 1005.4 |
| 20260509081726 | 70 | 207 | 4.0 | 5.0 | 0.00 | 0.00 | 0.00 | 84 | 1005.5 |
| 20260509081223 | 70 | 234 | 3.0 | 3.0 | 0.00 | 0.00 | 0.00 | 81 | 1005.1 |
| 20260509080721 | 70 | 70 | 1.0 | 1.0 | 0.00 | 0.00 | 0.00 | 81 | 1005.4 |
| 20260509080219 | 70 | 35 | 0.0 | 1.0 | 0.00 | 0.00 | 0.00 | 81 | 1005.9 |
| 20260509075717 | 69 | 81 | 2.0 | 2.0 | 0.00 | 0.00 | 0.00 | 80 | 1006.2 |
| 20260509075214 | 69 | 75 | 1.0 | 1.0 | 0.00 | 0.00 | 0.00 | 83 | 1006.5 |
| 20260509074711 | 68 | 60 | 0.0 | 0.0 | 0.00 | 0.00 | 0.00 | 86 | 1006.9 |
| 20260509074208 | 68 | 63 | 0.0 | 0.0 | 0.00 | 0.00 | 0.00 | 87 | 1007.5 |
| 20260509073704 | 68 | 198 | 2.0 | 2.0 | 0.00 | 0.00 | 0.00 | 89 | 1007.8 |
| 20260509073201 | 69 | 66 | 1.0 | 1.0 | 0.00 | 0.00 | 0.00 | 90 | 1008.4 |
| 20260509072658 | 68 | 270 | 2.0 | 3.0 | 0.00 | 0.00 | 0.00 | 91 | 1008.6 |
| 20260509072155 | 69 | 334 | 1.0 | 1.0 | 0.00 | 0.00 | 0.00 | 91 | 1008.3 |
| 20260509071651 | 69 | 21 | 2.0 | 5.0 | 0.00 | 0.00 | 0.00 | 92 | 1008.7 |
| 20260509071148 | 69 | 353 | 1.0 | 2.0 | 0.00 | 0.00 | 0.00 | 91 | 1009.0 |
| 20260509070645 | 69 | 75 | 3.0 | 6.0 | 0.00 | 0.00 | 0.00 | 91 | 1009.2 |
| 20260509070142 | 69 | 345 | 1.0 | 1.0 | 0.00 | 0.00 | 0.00 | 91 | 1009.4 |
| 20260509065637 | 69 | 1 | 1.0 | 2.0 | 0.00 | 0.00 | 0.00 | 92 | 1009.7 |
| 20260509065133 | 69 | 0 | 1.0 | 1.0 | 0.00 | 0.00 | 0.00 | 91 | 1009.9 |
| 20260509064631 | 69 | 53 | 0.0 | 0.0 | 0.00 | 0.00 | 0.00 | 91 | 1010.2 |
| 20260509064129 | 69 | 26 | 0.0 | 0.0 | 0.00 | 0.00 | 0.00 | 91 | 1009.9 |
| 20260509063626 | 69 | 47 | 0.0 | 0.0 | 0.00 | 0.00 | 0.00 | 91 | 1010.0 |
| 20260509063122 | 69 | 52 | 0.0 | 0.0 | 0.00 | 0.00 | 0.00 | 91 | 1010.0 |
| 20260509062620 | 69 | 52 | 0.0 | 0.0 | 0.00 | 0.00 | 0.00 | 90 | 1010.4 |
| 20260509062116 | 69 | 52 | 0.0 | 0.0 | 0.00 | 0.00 | 0.00 | 90 | 1010.0 |
| 20260509061613 | 69 | 50 | 0.0 | 0.0 | 0.00 | 0.00 | 0.00 | 90 | 1010.1 |
| 20260509061111 | 69 | 49 | 0.0 | 0.0 | 0.00 | 0.00 | 0.00 | 89 | 1010.0 |
| 20260509060608 | 69 | 52 | 0.0 | 0.0 | 0.00 | 0.00 | 0.00 | 89 | 1010.2 |
| 20260509060104 | 70 | 50 | 0.0 | 0.0 | 0.00 | 0.00 | 0.00 | 89 | 1010.0 |
| 20260509055559 | 70 | 53 | 0.0 | 0.0 | 0.00 | 0.00 | 0.00 | 88 | 1009.9 |
| 20260509055055 | 70 | 50 | 0.0 | 0.0 | 0.00 | 0.00 | 0.00 | 88 | 1009.9 |
| 20260509054553 | 70 | 52 | 0.0 | 0.0 | 0.00 | 0.00 | 0.00 | 88 | 1009.6 |
| 20260509054050 | 70 | 53 | 0.0 | 0.0 | 0.00 | 0.00 | 0.00 | 88 | 1010.0 |
| 20260509053549 | 71 | 45 | 0.0 | 0.0 | 0.00 | 0.00 | 0.00 | 88 | 1009.7 |
| 20260509053045 | 71 | 57 | 1.0 | 1.0 | 0.00 | 0.00 | 0.00 | 87 | 1010.1 |
| 20260509052543 | 71 | 37 | 2.0 | 2.0 | 0.00 | 0.00 | 0.00 | 87 | 1010.2 |
| 20260509052041 | 71 | 47 | 0.0 | 1.0 | 0.00 | 0.00 | 0.00 | 87 | 1009.9 |
| 20260509051538 | 70 | 35 | 1.0 | 1.0 | 0.00 | 0.00 | 0.00 | 87 | 1009.9 |
| 20260509051035 | 70 | 54 | 1.0 | 2.0 | 0.00 | 0.00 | 0.00 | 88 | 1010.1 |
| 20260509050532 | 70 | 50 | 1.0 | 2.0 | 0.00 | 0.00 | 0.00 | 87 | 1010.1 |
| 20260509050028 | 71 | 54 | 0.0 | 0.0 | 0.00 | 0.00 | 0.00 | 87 | 1009.6 |
| 20260509045526 | 71 | 64 | 1.0 | 1.0 | 0.00 | 0.00 | 0.00 | 87 | 1009.0 |
| 20260509045023 | 71 | 57 | 0.0 | 0.0 | 0.00 | 0.00 | 0.00 | 86 | 1008.9 |
| 20260509044521 | 71 | 41 | 1.0 | 2.0 | 0.00 | 0.00 | 0.00 | 86 | 1009.0 |
| 20260509044018 | 71 | 249 | 3.0 | 3.0 | 0.00 | 0.00 | 0.00 | 86 | 1008.8 |
| 20260509043514 | 71 | 64 | 1.0 | 1.0 | 0.00 | 0.00 | 0.00 | 86 | 1008.8 |
| 20260509043010 | 71 | 249 | 2.0 | 2.0 | 0.00 | 0.00 | 0.00 | 86 | 1008.9 |
| 20260509042506 | 71 | 224 | 3.0 | 3.0 | 0.00 | 0.00 | 0.00 | 85 | 1008.7 |
| 20260509042002 | 71 | 214 | 2.0 | 2.0 | 0.00 | 0.00 | 0.00 | 85 | 1008.9 |
| 20260509041459 | 71 | 325 | 2.0 | 2.0 | 0.00 | 0.00 | 0.00 | 85 | 1008.6 |
| 20260509040957 | 71 | 97 | 1.0 | 1.0 | 0.00 | 0.00 | 0.00 | 85 | 1008.8 |
| 20260509040455 | 71 | 358 | 1.0 | 1.0 | 0.00 | 0.00 | 0.00 | 85 | 1008.9 |
| 20260509035951 | 72 | 23 | 1.0 | 2.0 | 0.00 | 0.00 | 0.00 | 84 | 1008.8 |
| 20260509035448 | 72 | 72 | 1.0 | 1.0 | 0.00 | 0.00 | 0.00 | 84 | 1008.8 |
| 20260509034945 | 72 | 93 | 1.0 | 1.0 | 0.00 | 0.00 | 0.00 | 84 | 1008.7 |
| 20260509034443 | 71 | 92 | 1.0 | 2.0 | 0.00 | 0.00 | 0.00 | 84 | 1009.0 |
| 20260509033940 | 72 | 58 | 0.0 | 0.0 | 0.00 | 0.00 | 0.00 | 84 | 1009.0 |
| 20260509033437 | 72 | 47 | 1.0 | 2.0 | 0.00 | 0.00 | 0.00 | 84 | 1008.8 |
| 20260509032933 | 72 | 88 | 2.0 | 2.0 | 0.00 | 0.00 | 0.00 | 84 | 1008.8 |
| 20260509032431 | 72 | 54 | 1.0 | 1.0 | 0.00 | 0.00 | 0.00 | 84 | 1008.7 |
| 20260509031928 | 72 | 54 | 1.0 | 1.0 | 0.00 | 0.00 | 0.00 | 83 | 1008.5 |
| 20260509031426 | 72 | 140 | 1.0 | 1.0 | 0.00 | 0.00 | 0.00 | 83 | 1008.0 |
| 20260509030923 | 72 | 236 | 2.0 | 2.0 | 0.00 | 0.00 | 0.00 | 83 | 1007.7 |
| 20260509030421 | 72 | 195 | 3.0 | 3.0 | 0.00 | 0.00 | 0.00 | 83 | 1007.5 |
| 20260509025918 | 72 | 84 | 2.0 | 2.0 | 0.00 | 0.00 | 0.00 | 83 | 1007.3 |
| 20260509025413 | 72 | 199 | 3.0 | 7.0 | 0.00 | 0.00 | 0.00 | 83 | 1007.4 |
| 20260509024908 | 72 | 52 | 1.0 | 1.0 | 0.00 | 0.00 | 0.00 | 83 | 1007.7 |
| 20260509024405 | 72 | 91 | 0.0 | 1.0 | 0.00 | 0.00 | 0.00 | 82 | 1007.5 |
| 20260509023902 | 72 | 25 | 2.0 | 3.0 | 0.00 | 0.00 | 0.00 | 82 | 1007.4 |
| 20260509023359 | 72 | 280 | 3.0 | 5.0 | 0.00 | 0.00 | 0.00 | 82 | 1007.0 |
| 20260509022855 | 72 | 114 | 3.0 | 5.0 | 0.00 | 0.00 | 0.00 | 82 | 1006.9 |
| 20260509022353 | 72 | 100 | 2.0 | 2.0 | 0.00 | 0.00 | 0.00 | 82 | 1006.9 |
| 20260509021850 | 72 | 90 | 1.0 | 1.0 | 0.00 | 0.00 | 0.00 | 81 | 1007.0 |
| 20260509021347 | 72 | 157 | 3.0 | 3.0 | 0.00 | 0.00 | 0.00 | 81 | 1006.8 |
| 20260509020845 | 73 | 195 | 3.0 | 5.0 | 0.00 | 0.00 | 0.00 | 80 | 1006.3 |
| 20260509020343 | 73 | 197 | 4.0 | 5.0 | 0.00 | 0.00 | 0.00 | 80 | 1006.6 |
| 20260509015840 | 73 | 242 | 3.0 | 5.0 | 0.00 | 0.00 | 0.00 | 80 | 1006.6 |
| 20260509015338 | 73 | 189 | 2.0 | 2.0 | 0.00 | 0.00 | 0.00 | 79 | 1006.9 |
| 20260509014834 | 73 | 359 | 1.0 | 1.0 | 0.00 | 0.00 | 0.00 | 79 | 1007.2 |
| 20260509014331 | 73 | 131 | 1.0 | 1.0 | 0.00 | 0.00 | 0.00 | 79 | 1007.4 |
| 20260509013828 | 73 | 58 | 1.0 | 1.0 | 0.00 | 0.00 | 0.00 | 79 | 1007.2 |
| 20260509013325 | 73 | 150 | 2.0 | 2.0 | 0.00 | 0.00 | 0.00 | 79 | 1007.3 |
| 20260509012820 | 73 | 87 | 1.0 | 1.0 | 0.00 | 0.00 | 0.00 | 79 | 1007.4 |
| 20260509012317 | 73 | 72 | 0.0 | 1.0 | 0.00 | 0.00 | 0.00 | 78 | 1007.3 |
| 20260509011815 | 73 | 10 | 1.0 | 1.0 | 0.00 | 0.00 | 0.00 | 78 | 1007.0 |
| 20260509011312 | 73 | 223 | 4.0 | 5.0 | 0.00 | 0.00 | 0.00 | 78 | 1007.0 |
| 20260509010809 | 73 | 34 | 2.0 | 3.0 | 0.00 | 0.00 | 0.00 | 78 | 1007.0 |
| 20260509010306 | 73 | 343 | 3.0 | 3.0 | 0.00 | 0.00 | 0.00 | 78 | 1006.9 |
| 20260509005804 | 73 | 21 | 1.0 | 1.0 | 0.00 | 0.00 | 0.00 | 78 | 1006.8 |
| 20260509005305 | 73 | 237 | 3.0 | 3.0 | 0.00 | 0.00 | 0.00 | 77 | 1006.8 |
| 20260509004801 | 73 | 159 | 3.0 | 3.0 | 0.00 | 0.00 | 0.00 | 77 | 1006.8 |
| 20260509004258 | 73 | 285 | 3.0 | 5.0 | 0.00 | 0.00 | 0.00 | 77 | 1006.7 |
| 20260509003756 | 73 | 247 | 2.0 | 2.0 | 0.00 | 0.00 | 0.00 | 77 | 1006.6 |
| 20260509003253 | 73 | 201 | 6.0 | 8.0 | 0.00 | 0.00 | 0.00 | 77 | 1006.7 |
| 20260509002750 | 73 | 216 | 5.0 | 7.0 | 0.00 | 0.00 | 0.00 | 77 | 1006.5 |
| 20260509002248 | 73 | 248 | 3.0 | 5.0 | 0.00 | 0.00 | 0.00 | 77 | 1006.7 |
| 20260509001746 | 73 | 291 | 2.0 | 2.0 | 0.00 | 0.00 | 0.00 | 77 | 1006.4 |
| 20260509001241 | 73 | 214 | 4.0 | 5.0 | 0.00 | 0.00 | 0.00 | 76 | 1006.5 |
| 20260509000739 | 73 | 58 | 1.0 | 1.0 | 0.00 | 0.00 | 0.00 | 77 | 1006.8 |
| 20260509000236 | 73 | 237 | 3.0 | 3.0 | 0.00 | 0.00 | 0.00 | 76 | 1006.8 |
| 20260508235733 | 73 | 219 | 3.0 | 3.0 | 0.00 | 0.00 | 0.00 | 76 | 1006.7 |
| 20260508235230 | 73 | 199 | 3.0 | 5.0 | 0.00 | 0.00 | 0.00 | 76 | 1006.7 |
| 20260508234728 | 74 | 199 | 2.0 | 3.0 | 0.00 | 0.00 | 0.00 | 76 | 1006.7 |
| 20260508234224 | 73 | 191 | 3.0 | 5.0 | 0.00 | 0.00 | 0.00 | 76 | 1006.8 |
| 20260508233723 | 74 | 321 | 5.0 | 6.0 | 0.00 | 0.00 | 0.00 | 75 | 1006.9 |
| 20260508233221 | 73 | 229 | 5.0 | 7.0 | 0.00 | 0.00 | 0.00 | 75 | 1006.7 |
| 20260508232718 | 74 | 207 | 3.0 | 3.0 | 0.00 | 0.00 | 0.00 | 75 | 1007.2 |
| 20260508232214 | 74 | 237 | 3.0 | 3.0 | 0.00 | 0.00 | 0.00 | 75 | 1007.3 |
| 20260508231712 | 74 | 229 | 3.0 | 5.0 | 0.00 | 0.00 | 0.00 | 74 | 1007.3 |
| 20260508231209 | 74 | 90 | 2.0 | 2.0 | 0.00 | 0.00 | 0.00 | 74 | 1007.2 |
| 20260508230706 | 73 | 157 | 2.0 | 2.0 | 0.00 | 0.00 | 0.00 | 74 | 1007.0 |
| 20260508230202 | 74 | 241 | 4.0 | 5.0 | 0.00 | 0.00 | 0.00 | 74 | 1007.0 |
| 20260508225700 | 74 | 215 | 6.0 | 8.0 | 0.00 | 0.00 | 0.00 | 73 | 1007.2 |
| 20260508225156 | 74 | 179 | 3.0 | 3.0 | 0.00 | 0.00 | 0.00 | 73 | 1006.9 |
| 20260508224654 | 74 | 190 | 3.0 | 3.0 | 0.00 | 0.00 | 0.00 | 73 | 1007.2 |
| 20260508224151 | 74 | 5 | 1.0 | 1.0 | 0.00 | 0.00 | 0.00 | 72 | 1007.2 |
| 20260508223648 | 74 | 90 | 2.0 | 3.0 | 0.00 | 0.00 | 0.00 | 71 | 1006.8 |
| 20260508223146 | 74 | 233 | 2.0 | 3.0 | 0.00 | 0.00 | 0.00 | 72 | 1007.0 |
| 20260508222643 | 74 | 187 | 3.0 | 5.0 | 0.00 | 0.00 | 0.00 | 72 | 1007.3 |
| 20260508222140 | 74 | 206 | 5.0 | 7.0 | 0.00 | 0.00 | 0.00 | 71 | 1007.3 |
| 20260508221636 | 74 | 315 | 2.0 | 3.0 | 0.00 | 0.00 | 0.00 | 71 | 1007.3 |
| 20260508221132 | 75 | 208 | 5.0 | 6.0 | 0.00 | 0.00 | 0.00 | 70 | 1006.8 |
| 20260508220629 | 74 | 225 | 7.0 | 8.0 | 0.00 | 0.00 | 0.00 | 71 | 1006.9 |
| 20260508220126 | 74 | 195 | 3.0 | 5.0 | 0.00 | 0.00 | 0.00 | 70 | 1006.8 |
| 20260508215622 | 74 | 247 | 3.0 | 3.0 | 0.00 | 0.00 | 0.00 | 70 | 1007.4 |
| 20260508215119 | 74 | 77 | 2.0 | 2.0 | 0.00 | 0.00 | 0.00 | 69 | 1007.3 |
| 20260508214616 | 74 | 76 | 2.0 | 2.0 | 0.00 | 0.00 | 0.00 | 69 | 1007.4 |
| 20260508214113 | 75 | 215 | 4.0 | 5.0 | 0.00 | 0.00 | 0.00 | 68 | 1007.3 |
| 20260508213609 | 75 | 208 | 4.0 | 5.0 | 0.00 | 0.00 | 0.00 | 67 | 1007.2 |
| 20260508213106 | 76 | 235 | 9.0 | 13.0 | 0.00 | 0.00 | 0.00 | 65 | 1007.6 |
| 20260508212602 | 75 | 26 | 1.0 | 2.0 | 0.00 | 0.00 | 0.00 | 66 | 1007.4 |
| 20260508212059 | 75 | 119 | 3.0 | 5.0 | 0.00 | 0.00 | 0.00 | 65 | 1007.5 |
| 20260508211554 | 75 | 245 | 6.0 | 6.0 | 0.00 | 0.00 | 0.00 | 65 | 1007.6 |
| 20260508211051 | 75 | 231 | 3.0 | 5.0 | 0.00 | 0.00 | 0.00 | 66 | 1007.8 |
| 20260508210547 | 75 | 206 | 3.0 | 3.0 | 0.00 | 0.00 | 0.00 | 64 | 1007.8 |
| 20260508210045 | 75 | 6 | 3.0 | 3.0 | 0.00 | 0.00 | 0.00 | 65 | 1007.9 |
| 20260508205542 | 75 | 221 | 5.0 | 7.0 | 0.00 | 0.00 | 0.00 | 64 | 1007.9 |
| 20260508205038 | 75 | 216 | 1.0 | 1.0 | 0.00 | 0.00 | 0.00 | 64 | 1008.1 |
| 20260508204535 | 75 | 211 | 3.0 | 3.0 | 0.00 | 0.00 | 0.00 | 65 | 1008.5 |
| 20260508204031 | 75 | 262 | 2.0 | 3.0 | 0.00 | 0.00 | 0.00 | 65 | 1008.5 |
| 20260508203527 | 75 | 89 | 2.0 | 3.0 | 0.00 | 0.00 | 0.00 | 64 | 1008.3 |
| 20260508203023 | 75 | 105 | 0.0 | 1.0 | 0.00 | 0.00 | 0.00 | 63 | 1008.2 |
| 20260508202520 | 75 | 133 | 3.0 | 3.0 | 0.00 | 0.00 | 0.00 | 64 | 1007.9 |
| 20260508202017 | 74 | 56 | 1.0 | 1.0 | 0.00 | 0.00 | 0.00 | 64 | 1008.6 |
| 20260508201514 | 73 | 60 | 1.0 | 1.0 | 0.00 | 0.00 | 0.00 | 66 | 1008.8 |
| 20260508201010 | 72 | 189 | 3.0 | 3.0 | 0.00 | 0.00 | 0.00 | 67 | 1009.0 |
| 20260508200508 | 71 | 78 | 3.0 | 3.0 | 0.00 | 0.00 | 0.00 | 68 | 1009.2 |
| 20260508200003 | 72 | 225 | 3.0 | 5.0 | 0.00 | 0.00 | 0.00 | 68 | 1009.6 |
| 20260508195500 | 71 | 353 | 3.0 | 5.0 | 0.00 | 0.00 | 0.00 | 69 | 1009.5 |
| 20260508194956 | 71 | 208 | 3.0 | 5.0 | 0.00 | 0.00 | 0.00 | 69 | 1009.8 |
| 20260508194453 | 71 | 236 | 2.0 | 3.0 | 0.00 | 0.00 | 0.00 | 69 | 1009.8 |
| 20260508193950 | 71 | 152 | 3.0 | 3.0 | 0.00 | 0.00 | 0.00 | 69 | 1009.8 |
| 20260508193446 | 72 | 118 | 4.0 | 6.0 | 0.00 | 0.00 | 0.00 | 67 | 1009.6 |
| 20260508192943 | 73 | 225 | 3.0 | 5.0 | 0.00 | 0.00 | 0.00 | 66 | 1009.6 |
| 20260508192440 | 73 | 237 | 6.0 | 7.0 | 0.00 | 0.00 | 0.00 | 67 | 1009.7 |
| 20260508191937 | 74 | 256 | 2.0 | 3.0 | 0.00 | 0.00 | 0.00 | 66 | 1009.7 |
| 20260508191434 | 73 | 279 | 3.0 | 5.0 | 0.00 | 0.00 | 0.00 | 66 | 1009.6 |
| 20260508190931 | 74 | 210 | 3.0 | 5.0 | 0.00 | 0.00 | 0.00 | 65 | 1009.5 |
| 20260508190428 | 73 | 30 | 1.0 | 2.0 | 0.00 | 0.00 | 0.00 | 66 | 1009.7 |
| 20260508185924 | 73 | 200 | 3.0 | 3.0 | 0.00 | 0.00 | 0.00 | 66 | 1009.8 |
| 20260508185422 | 73 | 89 | 3.0 | 3.0 | 0.00 | 0.00 | 0.00 | 68 | 1009.7 |
| 20260508184919 | 73 | 327 | 4.0 | 7.0 | 0.00 | 0.00 | 0.00 | 67 | 1010.0 |
| 20260508184416 | 73 | 60 | 2.0 | 2.0 | 0.00 | 0.00 | 0.00 | 66 | 1009.8 |
| 20260508183913 | 73 | 0 | 1.0 | 2.0 | 0.00 | 0.00 | 0.00 | 66 | 1009.9 |
| 20260508183409 | 73 | 152 | 2.0 | 2.0 | 0.00 | 0.00 | 0.00 | 65 | 1009.9 |
| 20260508182905 | 73 | 241 | 3.0 | 5.0 | 0.00 | 0.00 | 0.00 | 65 | 1009.8 |
| 20260508182402 | 73 | 83 | 3.0 | 3.0 | 0.00 | 0.00 | 0.00 | 64 | 1010.0 |
| 20260508181857 | 73 | 254 | 2.0 | 3.0 | 0.00 | 0.00 | 0.00 | 64 | 1010.1 |
| 20260508181355 | 72 | 43 | 2.0 | 3.0 | 0.00 | 0.00 | 0.00 | 65 | 1010.2 |
| 20260508180852 | 73 | 266 | 3.0 | 3.0 | 0.00 | 0.00 | 0.00 | 65 | 1010.2 |
| 20260508180349 | 72 | 66 | 1.0 | 2.0 | 0.00 | 0.00 | 0.00 | 65 | 1010.2 |
| 20260508175844 | 73 | 223 | 4.0 | 5.0 | 0.00 | 0.00 | 0.00 | 63 | 1010.1 |
| 20260508175341 | 73 | 239 | 2.0 | 2.0 | 0.00 | 0.00 | 0.00 | 64 | 1010.6 |
| 20260508174840 | 72 | 150 | 2.0 | 2.0 | 0.00 | 0.00 | 0.00 | 64 | 1010.7 |
| 20260508174336 | 72 | 170 | 4.0 | 5.0 | 0.00 | 0.00 | 0.00 | 65 | 1010.8 |